sensor_id;sensor_type;location;lat;lon;timestamp;temperature;humidity
9223;DHT22;7557;51.698;3.942;2023-05-16T00:01:47;10.40;99.90
9223;DHT22;7557;51.698;3.942;2023-05-16T00:04:16;10.50;99.90
9223;DHT22;7557;51.698;3.942;2023-05-16T00:06:43;10.50;99.90
9223;DHT22;7557;51.698;3.942;2023-05-16T00:09:10;10.50;99.90
9223;DHT22;7557;51.698;3.942;2023-05-16T00:11:37;10.50;99.90
9223;DHT22;7557;51.698;3.942;2023-05-16T00:14:04;10.50;99.90
9223;DHT22;7557;51.698;3.942;2023-05-16T00:16:32;10.40;99.90
9223;DHT22;7557;51.698;3.942;2023-05-16T00:19:01;10.50;99.90
9223;DHT22;7557;51.698;3.942;2023-05-16T00:21:30;10.40;99.90
9223;DHT22;7557;51.698;3.942;2023-05-16T00:23:57;10.40;99.90
9223;DHT22;7557;51.698;3.942;2023-05-16T00:26:24;10.40;99.90
9223;DHT22;7557;51.698;3.942;2023-05-16T00:28:52;10.50;99.90
9223;DHT22;7557;51.698;3.942;2023-05-16T00:31:19;10.50;99.90
9223;DHT22;7557;51.698;3.942;2023-05-16T00:33:47;10.40;99.90
9223;DHT22;7557;51.698;3.942;2023-05-16T00:36:14;10.40;99.90
9223;DHT22;7557;51.698;3.942;2023-05-16T00:38:42;10.40;99.90
9223;DHT22;7557;51.698;3.942;2023-05-16T00:41:10;10.40;99.90
9223;DHT22;7557;51.698;3.942;2023-05-16T00:43:37;10.40;99.90
9223;DHT22;7557;51.698;3.942;2023-05-16T00:46:05;10.30;99.90
9223;DHT22;7557;51.698;3.942;2023-05-16T00:48:33;10.30;99.90
9223;DHT22;7557;51.698;3.942;2023-05-16T00:51:00;10.30;99.90
9223;DHT22;7557;51.698;3.942;2023-05-16T00:53:28;10.30;99.90
9223;DHT22;7557;51.698;3.942;2023-05-16T00:55:57;10.30;99.90
9223;DHT22;7557;51.698;3.942;2023-05-16T00:58:25;10.30;99.90
9223;DHT22;7557;51.698;3.942;2023-05-16T01:00:53;10.30;99.90
9223;DHT22;7557;51.698;3.942;2023-05-16T01:03:21;10.30;99.90
9223;DHT22;7557;51.698;3.942;2023-05-16T01:05:48;10.30;99.90
9223;DHT22;7557;51.698;3.942;2023-05-16T01:08:16;10.40;99.90
9223;DHT22;7557;51.698;3.942;2023-05-16T01:10:51;10.40;99.90
9223;DHT22;7557;51.698;3.942;2023-05-16T01:13:26;10.40;99.90
9223;DHT22;7557;51.698;3.942;2023-05-16T01:16:02;10.40;99.90
9223;DHT22;7557;51.698;3.942;2023-05-16T01:18:37;10.40;99.90
9223;DHT22;7557;51.698;3.942;2023-05-16T01:21:12;10.40;99.90
9223;DHT22;7557;51.698;3.942;2023-05-16T01:23:50;10.30;99.90
9223;DHT22;7557;51.698;3.942;2023-05-16T01:26:21;10.30;99.90
9223;DHT22;7557;51.698;3.942;2023-05-16T01:28:49;10.30;99.90
9223;DHT22;7557;51.698;3.942;2023-05-16T01:31:17;10.20;99.90
9223;DHT22;7557;51.698;3.942;2023-05-16T01:33:44;10.20;99.90
9223;DHT22;7557;51.698;3.942;2023-05-16T01:36:24;10.20;99.90
9223;DHT22;7557;51.698;3.942;2023-05-16T01:39:02;10.20;99.90
9223;DHT22;7557;51.698;3.942;2023-05-16T01:41:40;10.20;99.90
9223;DHT22;7557;51.698;3.942;2023-05-16T01:44:15;10.20;99.90
9223;DHT22;7557;51.698;3.942;2023-05-16T01:46:46;10.20;99.90
9223;DHT22;7557;51.698;3.942;2023-05-16T01:49:19;10.20;99.90
9223;DHT22;7557;51.698;3.942;2023-05-16T01:51:51;10.20;99.90
9223;DHT22;7557;51.698;3.942;2023-05-16T01:54:22;10.10;99.90
9223;DHT22;7557;51.698;3.942;2023-05-16T01:56:53;10.10;99.90
9223;DHT22;7557;51.698;3.942;2023-05-16T01:59:23;10.20;99.90
9223;DHT22;7557;51.698;3.942;2023-05-16T02:01:52;10.20;99.90
9223;DHT22;7557;51.698;3.942;2023-05-16T02:04:20;10.30;99.90
9223;DHT22;7557;51.698;3.942;2023-05-16T02:06:49;10.20;99.90
9223;DHT22;7557;51.698;3.942;2023-05-16T02:09:16;10.20;99.90
9223;DHT22;7557;51.698;3.942;2023-05-16T02:11:43;10.20;99.90
9223;DHT22;7557;51.698;3.942;2023-05-16T02:14:13;10.20;99.90
9223;DHT22;7557;51.698;3.942;2023-05-16T02:16:40;10.10;99.90
9223;DHT22;7557;51.698;3.942;2023-05-16T02:19:07;10.10;99.90
9223;DHT22;7557;51.698;3.942;2023-05-16T02:21:35;10.10;99.90
9223;DHT22;7557;51.698;3.942;2023-05-16T02:24:02;10.00;99.90
9223;DHT22;7557;51.698;3.942;2023-05-16T02:26:30;10.10;99.90
9223;DHT22;7557;51.698;3.942;2023-05-16T02:28:57;10.10;99.90
9223;DHT22;7557;51.698;3.942;2023-05-16T02:31:30;10.10;99.90
9223;DHT22;7557;51.698;3.942;2023-05-16T02:33:57;10.10;99.90
9223;DHT22;7557;51.698;3.942;2023-05-16T02:36:25;10.00;99.90
9223;DHT22;7557;51.698;3.942;2023-05-16T02:38:52;10.00;99.90
9223;DHT22;7557;51.698;3.942;2023-05-16T02:41:19;10.00;99.90
9223;DHT22;7557;51.698;3.942;2023-05-16T02:43:47;10.00;99.90
9223;DHT22;7557;51.698;3.942;2023-05-16T02:46:21;9.90;99.90
9223;DHT22;7557;51.698;3.942;2023-05-16T02:48:50;9.90;99.90
9223;DHT22;7557;51.698;3.942;2023-05-16T02:51:19;9.90;99.90
9223;DHT22;7557;51.698;3.942;2023-05-16T02:53:47;9.80;99.90
9223;DHT22;7557;51.698;3.942;2023-05-16T02:56:15;9.90;99.90
9223;DHT22;7557;51.698;3.942;2023-05-16T02:58:43;9.90;99.90
9223;DHT22;7557;51.698;3.942;2023-05-16T03:01:10;9.90;99.90
9223;DHT22;7557;51.698;3.942;2023-05-16T03:03:37;9.90;99.90
9223;DHT22;7557;51.698;3.942;2023-05-16T03:06:06;9.90;99.90
9223;DHT22;7557;51.698;3.942;2023-05-16T03:08:34;9.90;99.90
9223;DHT22;7557;51.698;3.942;2023-05-16T03:11:01;10.00;99.90
9223;DHT22;7557;51.698;3.942;2023-05-16T03:13:28;10.00;99.90
9223;DHT22;7557;51.698;3.942;2023-05-16T03:15:56;10.00;99.90
9223;DHT22;7557;51.698;3.942;2023-05-16T03:18:23;10.00;99.90
9223;DHT22;7557;51.698;3.942;2023-05-16T03:20:50;10.00;99.90
9223;DHT22;7557;51.698;3.942;2023-05-16T03:23:19;10.10;99.90
9223;DHT22;7557;51.698;3.942;2023-05-16T03:25:47;10.10;99.90
9223;DHT22;7557;51.698;3.942;2023-05-16T03:28:16;10.00;99.90
9223;DHT22;7557;51.698;3.942;2023-05-16T03:30:43;10.00;99.90
9223;DHT22;7557;51.698;3.942;2023-05-16T03:33:11;10.00;99.90
9223;DHT22;7557;51.698;3.942;2023-05-16T03:35:39;10.00;99.90
9223;DHT22;7557;51.698;3.942;2023-05-16T03:38:06;10.00;99.90
9223;DHT22;7557;51.698;3.942;2023-05-16T03:40:35;10.00;99.90
9223;DHT22;7557;51.698;3.942;2023-05-16T03:43:02;10.00;99.90
9223;DHT22;7557;51.698;3.942;2023-05-16T03:45:30;10.00;99.90
9223;DHT22;7557;51.698;3.942;2023-05-16T03:47:57;9.90;99.90
9223;DHT22;7557;51.698;3.942;2023-05-16T03:50:25;9.90;99.90
9223;DHT22;7557;51.698;3.942;2023-05-16T03:52:52;10.00;99.90
9223;DHT22;7557;51.698;3.942;2023-05-16T03:55:20;10.00;99.90
9223;DHT22;7557;51.698;3.942;2023-05-16T03:57:49;10.00;99.90
9223;DHT22;7557;51.698;3.942;2023-05-16T04:00:17;10.00;99.90
9223;DHT22;7557;51.698;3.942;2023-05-16T04:02:44;9.90;99.90
9223;DHT22;7557;51.698;3.942;2023-05-16T04:05:11;9.90;99.90
9223;DHT22;7557;51.698;3.942;2023-05-16T04:07:39;9.90;99.90
9223;DHT22;7557;51.698;3.942;2023-05-16T04:10:07;9.90;99.90
9223;DHT22;7557;51.698;3.942;2023-05-16T04:12:35;9.90;99.90
9223;DHT22;7557;51.698;3.942;2023-05-16T04:15:05;10.00;99.90
9223;DHT22;7557;51.698;3.942;2023-05-16T04:17:32;10.00;99.90
9223;DHT22;7557;51.698;3.942;2023-05-16T04:19:59;10.10;99.90
9223;DHT22;7557;51.698;3.942;2023-05-16T04:22:27;10.10;99.90
9223;DHT22;7557;51.698;3.942;2023-05-16T04:24:54;10.10;99.90
9223;DHT22;7557;51.698;3.942;2023-05-16T04:27:21;10.20;99.90
9223;DHT22;7557;51.698;3.942;2023-05-16T04:29:49;10.20;99.90
9223;DHT22;7557;51.698;3.942;2023-05-16T04:32:18;10.20;99.90
9223;DHT22;7557;51.698;3.942;2023-05-16T04:34:45;10.30;99.90
9223;DHT22;7557;51.698;3.942;2023-05-16T04:37:13;10.30;99.90
9223;DHT22;7557;51.698;3.942;2023-05-16T04:39:41;10.30;99.90
9223;DHT22;7557;51.698;3.942;2023-05-16T04:42:08;10.40;99.90
9223;DHT22;7557;51.698;3.942;2023-05-16T04:44:35;10.50;99.90
9223;DHT22;7557;51.698;3.942;2023-05-16T04:47:03;10.50;99.90
9223;DHT22;7557;51.698;3.942;2023-05-16T04:49:32;10.60;99.90
9223;DHT22;7557;51.698;3.942;2023-05-16T04:52:00;10.60;99.90
9223;DHT22;7557;51.698;3.942;2023-05-16T04:54:27;10.60;99.90
9223;DHT22;7557;51.698;3.942;2023-05-16T04:56:55;10.60;99.90
9223;DHT22;7557;51.698;3.942;2023-05-16T04:59:22;10.60;99.90
9223;DHT22;7557;51.698;3.942;2023-05-16T05:01:49;10.60;99.90
9223;DHT22;7557;51.698;3.942;2023-05-16T05:04:16;10.60;99.90
9223;DHT22;7557;51.698;3.942;2023-05-16T05:06:45;10.60;99.90
9223;DHT22;7557;51.698;3.942;2023-05-16T05:09:12;10.70;99.90
9223;DHT22;7557;51.698;3.942;2023-05-16T05:11:40;10.70;99.90
9223;DHT22;7557;51.698;3.942;2023-05-16T05:14:07;10.70;99.90
9223;DHT22;7557;51.698;3.942;2023-05-16T05:16:34;10.70;99.90
9223;DHT22;7557;51.698;3.942;2023-05-16T05:19:02;10.70;99.90
9223;DHT22;7557;51.698;3.942;2023-05-16T05:21:29;10.80;99.90
9223;DHT22;7557;51.698;3.942;2023-05-16T05:23:58;10.90;99.90
9223;DHT22;7557;51.698;3.942;2023-05-16T05:26:25;11.20;99.90
9223;DHT22;7557;51.698;3.942;2023-05-16T05:28:53;11.30;99.90
9223;DHT22;7557;51.698;3.942;2023-05-16T05:31:20;11.50;99.90
9223;DHT22;7557;51.698;3.942;2023-05-16T05:33:48;11.60;99.90
9223;DHT22;7557;51.698;3.942;2023-05-16T05:36:15;11.80;99.90
9223;DHT22;7557;51.698;3.942;2023-05-16T05:38:42;11.90;99.90
9223;DHT22;7557;51.698;3.942;2023-05-16T05:41:11;11.80;99.90
9223;DHT22;7557;51.698;3.942;2023-05-16T05:43:39;11.80;99.90
9223;DHT22;7557;51.698;3.942;2023-05-16T05:46:06;11.80;99.90
9223;DHT22;7557;51.698;3.942;2023-05-16T05:48:33;11.90;99.90
9223;DHT22;7557;51.698;3.942;2023-05-16T05:51:01;12.00;99.90
9223;DHT22;7557;51.698;3.942;2023-05-16T05:53:28;12.10;99.90
9223;DHT22;7557;51.698;3.942;2023-05-16T05:55:55;12.10;99.90
9223;DHT22;7557;51.698;3.942;2023-05-16T05:58:25;12.10;99.90
9223;DHT22;7557;51.698;3.942;2023-05-16T06:00:52;12.20;99.90
9223;DHT22;7557;51.698;3.942;2023-05-16T06:03:20;12.20;99.90
9223;DHT22;7557;51.698;3.942;2023-05-16T06:05:47;12.20;99.90
9223;DHT22;7557;51.698;3.942;2023-05-16T06:08:14;12.30;99.90
9223;DHT22;7557;51.698;3.942;2023-05-16T06:10:41;12.30;99.90
9223;DHT22;7557;51.698;3.942;2023-05-16T06:13:09;12.40;99.90
9223;DHT22;7557;51.698;3.942;2023-05-16T06:15:37;12.40;99.90
9223;DHT22;7557;51.698;3.942;2023-05-16T06:18:05;12.50;99.90
9223;DHT22;7557;51.698;3.942;2023-05-16T06:20:32;12.50;99.90
9223;DHT22;7557;51.698;3.942;2023-05-16T06:23:00;12.60;99.90
9223;DHT22;7557;51.698;3.942;2023-05-16T06:25:27;12.60;99.90
9223;DHT22;7557;51.698;3.942;2023-05-16T06:27:55;12.50;99.90
9223;DHT22;7557;51.698;3.942;2023-05-16T06:30:22;12.60;99.90
9223;DHT22;7557;51.698;3.942;2023-05-16T06:32:50;12.60;99.90
9223;DHT22;7557;51.698;3.942;2023-05-16T06:35:18;12.70;99.90
9223;DHT22;7557;51.698;3.942;2023-05-16T06:37:45;12.70;99.90
9223;DHT22;7557;51.698;3.942;2023-05-16T06:40:12;12.90;99.90
9223;DHT22;7557;51.698;3.942;2023-05-16T06:42:40;13.10;99.90
9223;DHT22;7557;51.698;3.942;2023-05-16T06:45:08;13.10;99.90
9223;DHT22;7557;51.698;3.942;2023-05-16T06:47:36;13.10;99.90
9223;DHT22;7557;51.698;3.942;2023-05-16T06:50:06;13.00;99.90
9223;DHT22;7557;51.698;3.942;2023-05-16T06:52:34;13.10;99.90
9223;DHT22;7557;51.698;3.942;2023-05-16T06:55:02;13.00;99.90
9223;DHT22;7557;51.698;3.942;2023-05-16T06:57:29;13.00;99.90
9223;DHT22;7557;51.698;3.942;2023-05-16T06:59:56;13.10;99.90
9223;DHT22;7557;51.698;3.942;2023-05-16T07:02:23;13.10;99.90
9223;DHT22;7557;51.698;3.942;2023-05-16T07:04:51;13.30;99.90
9223;DHT22;7557;51.698;3.942;2023-05-16T07:07:19;13.40;99.90
9223;DHT22;7557;51.698;3.942;2023-05-16T07:09:47;13.30;99.90
9223;DHT22;7557;51.698;3.942;2023-05-16T07:12:14;13.20;99.90
9223;DHT22;7557;51.698;3.942;2023-05-16T07:14:41;13.00;99.90
9223;DHT22;7557;51.698;3.942;2023-05-16T07:17:09;12.90;99.90
9223;DHT22;7557;51.698;3.942;2023-05-16T07:19:36;12.90;99.90
9223;DHT22;7557;51.698;3.942;2023-05-16T07:22:04;13.00;99.90
9223;DHT22;7557;51.698;3.942;2023-05-16T07:24:33;13.10;99.90
9223;DHT22;7557;51.698;3.942;2023-05-16T07:27:01;13.20;99.90
9223;DHT22;7557;51.698;3.942;2023-05-16T07:29:28;13.20;99.90
9223;DHT22;7557;51.698;3.942;2023-05-16T07:31:56;13.10;99.90
9223;DHT22;7557;51.698;3.942;2023-05-16T07:34:24;13.20;99.90
9223;DHT22;7557;51.698;3.942;2023-05-16T07:36:51;13.20;99.90
9223;DHT22;7557;51.698;3.942;2023-05-16T07:39:18;13.30;99.90
9223;DHT22;7557;51.698;3.942;2023-05-16T07:41:47;13.20;99.90
9223;DHT22;7557;51.698;3.942;2023-05-16T07:44:14;13.20;99.90
9223;DHT22;7557;51.698;3.942;2023-05-16T07:46:41;13.30;99.90
9223;DHT22;7557;51.698;3.942;2023-05-16T07:49:09;13.50;99.90
9223;DHT22;7557;51.698;3.942;2023-05-16T07:51:36;13.60;99.90
9223;DHT22;7557;51.698;3.942;2023-05-16T07:54:04;13.70;99.90
9223;DHT22;7557;51.698;3.942;2023-05-16T07:56:32;13.80;99.90
9223;DHT22;7557;51.698;3.942;2023-05-16T07:59:00;13.90;99.90
9223;DHT22;7557;51.698;3.942;2023-05-16T08:01:28;14.00;99.90
9223;DHT22;7557;51.698;3.942;2023-05-16T08:03:55;14.00;99.90
9223;DHT22;7557;51.698;3.942;2023-05-16T08:06:22;14.00;99.90
9223;DHT22;7557;51.698;3.942;2023-05-16T08:08:49;14.00;99.90
9223;DHT22;7557;51.698;3.942;2023-05-16T08:11:18;14.00;99.90
9223;DHT22;7557;51.698;3.942;2023-05-16T08:13:47;14.00;99.90
9223;DHT22;7557;51.698;3.942;2023-05-16T08:16:16;13.90;99.90
9223;DHT22;7557;51.698;3.942;2023-05-16T08:18:43;13.90;99.90
9223;DHT22;7557;51.698;3.942;2023-05-16T08:21:10;14.00;99.90
9223;DHT22;7557;51.698;3.942;2023-05-16T08:23:39;14.00;99.90
9223;DHT22;7557;51.698;3.942;2023-05-16T08:26:06;14.10;99.90
9223;DHT22;7557;51.698;3.942;2023-05-16T08:28:33;14.10;99.90
9223;DHT22;7557;51.698;3.942;2023-05-16T08:31:00;14.10;99.90
9223;DHT22;7557;51.698;3.942;2023-05-16T08:33:29;14.10;99.90
9223;DHT22;7557;51.698;3.942;2023-05-16T08:35:57;14.20;99.90
9223;DHT22;7557;51.698;3.942;2023-05-16T08:38:25;14.30;99.90
9223;DHT22;7557;51.698;3.942;2023-05-16T08:40:52;14.30;99.90
9223;DHT22;7557;51.698;3.942;2023-05-16T08:43:20;14.30;99.90
9223;DHT22;7557;51.698;3.942;2023-05-16T08:45:47;14.30;99.90
9223;DHT22;7557;51.698;3.942;2023-05-16T08:48:15;14.20;99.90
9223;DHT22;7557;51.698;3.942;2023-05-16T08:50:45;14.10;99.90
9223;DHT22;7557;51.698;3.942;2023-05-16T08:53:16;14.00;99.90
9223;DHT22;7557;51.698;3.942;2023-05-16T08:55:47;14.10;99.90
9223;DHT22;7557;51.698;3.942;2023-05-16T08:58:16;14.10;99.90
9223;DHT22;7557;51.698;3.942;2023-05-16T09:00:44;14.10;99.90
9223;DHT22;7557;51.698;3.942;2023-05-16T09:03:11;14.30;99.90
9223;DHT22;7557;51.698;3.942;2023-05-16T09:05:40;14.40;99.90
9223;DHT22;7557;51.698;3.942;2023-05-16T09:08:08;14.40;99.90
9223;DHT22;7557;51.698;3.942;2023-05-16T09:10:35;14.30;99.90
9223;DHT22;7557;51.698;3.942;2023-05-16T09:13:03;14.30;99.90
9223;DHT22;7557;51.698;3.942;2023-05-16T09:15:31;14.40;99.90
9223;DHT22;7557;51.698;3.942;2023-05-16T09:18:00;14.40;99.90
9223;DHT22;7557;51.698;3.942;2023-05-16T09:20:27;14.40;99.90
9223;DHT22;7557;51.698;3.942;2023-05-16T09:22:56;14.50;99.90
9223;DHT22;7557;51.698;3.942;2023-05-16T09:25:27;14.60;99.90
9223;DHT22;7557;51.698;3.942;2023-05-16T09:27:54;14.50;99.90
9223;DHT22;7557;51.698;3.942;2023-05-16T09:30:22;14.50;99.90
9223;DHT22;7557;51.698;3.942;2023-05-16T09:32:51;14.50;99.90
9223;DHT22;7557;51.698;3.942;2023-05-16T09:35:19;14.60;99.90
9223;DHT22;7557;51.698;3.942;2023-05-16T09:37:47;14.60;99.90
9223;DHT22;7557;51.698;3.942;2023-05-16T09:40:15;14.60;99.90
9223;DHT22;7557;51.698;3.942;2023-05-16T09:43:00;14.70;99.90
9223;DHT22;7557;51.698;3.942;2023-05-16T09:45:27;14.50;99.90
9223;DHT22;7557;51.698;3.942;2023-05-16T09:48:00;14.50;99.90
9223;DHT22;7557;51.698;3.942;2023-05-16T09:50:28;14.60;99.90
9223;DHT22;7557;51.698;3.942;2023-05-16T09:52:57;14.60;99.90
9223;DHT22;7557;51.698;3.942;2023-05-16T09:55:24;14.60;99.90
9223;DHT22;7557;51.698;3.942;2023-05-16T09:57:53;14.70;99.90
9223;DHT22;7557;51.698;3.942;2023-05-16T10:00:21;14.60;99.90
9223;DHT22;7557;51.698;3.942;2023-05-16T10:02:55;14.60;99.90
9223;DHT22;7557;51.698;3.942;2023-05-16T10:05:24;14.70;99.90
9223;DHT22;7557;51.698;3.942;2023-05-16T10:07:53;14.60;99.90
9223;DHT22;7557;51.698;3.942;2023-05-16T10:10:21;14.70;99.90
9223;DHT22;7557;51.698;3.942;2023-05-16T10:12:50;14.80;99.90
9223;DHT22;7557;51.698;3.942;2023-05-16T10:15:20;14.90;99.90
9223;DHT22;7557;51.698;3.942;2023-05-16T10:17:50;15.00;99.90
9223;DHT22;7557;51.698;3.942;2023-05-16T10:20:17;15.00;99.90
9223;DHT22;7557;51.698;3.942;2023-05-16T10:22:46;15.10;99.90
9223;DHT22;7557;51.698;3.942;2023-05-16T10:25:24;15.20;99.90
9223;DHT22;7557;51.698;3.942;2023-05-16T10:27:52;15.20;99.90
9223;DHT22;7557;51.698;3.942;2023-05-16T10:30:21;15.30;99.90
9223;DHT22;7557;51.698;3.942;2023-05-16T10:32:49;15.30;99.90
9223;DHT22;7557;51.698;3.942;2023-05-16T10:35:18;15.40;99.90
9223;DHT22;7557;51.698;3.942;2023-05-16T10:37:47;15.40;99.90
9223;DHT22;7557;51.698;3.942;2023-05-16T10:40:15;15.50;99.90
9223;DHT22;7557;51.698;3.942;2023-05-16T10:42:46;15.40;99.90
9223;DHT22;7557;51.698;3.942;2023-05-16T10:45:22;15.50;99.90
9223;DHT22;7557;51.698;3.942;2023-05-16T10:47:51;15.40;99.90
9223;DHT22;7557;51.698;3.942;2023-05-16T10:50:40;15.40;99.90
9223;DHT22;7557;51.698;3.942;2023-05-16T10:53:18;15.40;99.90
9223;DHT22;7557;51.698;3.942;2023-05-16T10:55:50;15.40;99.90
9223;DHT22;7557;51.698;3.942;2023-05-16T10:58:40;15.40;99.90
9223;DHT22;7557;51.698;3.942;2023-05-16T11:01:17;15.20;99.90
9223;DHT22;7557;51.698;3.942;2023-05-16T11:04:15;15.20;99.90
9223;DHT22;7557;51.698;3.942;2023-05-16T11:06:49;15.30;99.90
9223;DHT22;7557;51.698;3.942;2023-05-16T11:09:26;15.40;99.90
9223;DHT22;7557;51.698;3.942;2023-05-16T11:11:55;15.50;99.90
9223;DHT22;7557;51.698;3.942;2023-05-16T11:14:24;15.50;99.90
9223;DHT22;7557;51.698;3.942;2023-05-16T11:16:58;15.60;99.90
9223;DHT22;7557;51.698;3.942;2023-05-16T11:19:32;15.60;99.90
9223;DHT22;7557;51.698;3.942;2023-05-16T11:22:11;15.60;99.90
9223;DHT22;7557;51.698;3.942;2023-05-16T11:24:48;15.70;99.90
9223;DHT22;7557;51.698;3.942;2023-05-16T11:27:20;15.60;99.90
9223;DHT22;7557;51.698;3.942;2023-05-16T11:29:48;15.60;99.90
9223;DHT22;7557;51.698;3.942;2023-05-16T11:32:20;15.60;99.90
9223;DHT22;7557;51.698;3.942;2023-05-16T11:34:48;15.70;99.90
9223;DHT22;7557;51.698;3.942;2023-05-16T11:37:17;15.70;99.90
9223;DHT22;7557;51.698;3.942;2023-05-16T11:39:45;15.70;99.80
9223;DHT22;7557;51.698;3.942;2023-05-16T11:42:13;15.70;99.90
9223;DHT22;7557;51.698;3.942;2023-05-16T11:44:40;15.80;99.90
9223;DHT22;7557;51.698;3.942;2023-05-16T11:47:08;15.80;99.90
9223;DHT22;7557;51.698;3.942;2023-05-16T11:49:37;15.90;99.90
9223;DHT22;7557;51.698;3.942;2023-05-16T11:52:07;16.00;99.90
9223;DHT22;7557;51.698;3.942;2023-05-16T11:54:35;16.00;99.70
9223;DHT22;7557;51.698;3.942;2023-05-16T11:57:04;16.00;99.90
9223;DHT22;7557;51.698;3.942;2023-05-16T11:59:32;16.10;99.90
9223;DHT22;7557;51.698;3.942;2023-05-16T12:02:02;16.10;99.20
9223;DHT22;7557;51.698;3.942;2023-05-16T12:04:31;16.00;99.40
9223;DHT22;7557;51.698;3.942;2023-05-16T12:07:00;16.10;99.90
9223;DHT22;7557;51.698;3.942;2023-05-16T12:09:29;16.20;99.40
9223;DHT22;7557;51.698;3.942;2023-05-16T12:11:57;16.20;99.80
9223;DHT22;7557;51.698;3.942;2023-05-16T12:14:24;16.30;99.90
9223;DHT22;7557;51.698;3.942;2023-05-16T12:16:52;16.40;99.90
9223;DHT22;7557;51.698;3.942;2023-05-16T12:19:20;16.40;99.60
9223;DHT22;7557;51.698;3.942;2023-05-16T12:21:51;16.30;99.60
9223;DHT22;7557;51.698;3.942;2023-05-16T12:24:20;16.40;99.90
9223;DHT22;7557;51.698;3.942;2023-05-16T12:26:47;16.40;99.20
9223;DHT22;7557;51.698;3.942;2023-05-16T12:29:14;16.30;98.60
9223;DHT22;7557;51.698;3.942;2023-05-16T12:31:42;16.30;98.90
9223;DHT22;7557;51.698;3.942;2023-05-16T12:34:16;16.30;99.80
9223;DHT22;7557;51.698;3.942;2023-05-16T12:36:44;16.30;99.60
9223;DHT22;7557;51.698;3.942;2023-05-16T12:39:11;16.40;99.90
9223;DHT22;7557;51.698;3.942;2023-05-16T12:41:41;16.40;99.90
9223;DHT22;7557;51.698;3.942;2023-05-16T12:44:13;16.40;99.90
9223;DHT22;7557;51.698;3.942;2023-05-16T12:46:43;16.40;99.90
9223;DHT22;7557;51.698;3.942;2023-05-16T12:49:11;16.50;99.90
9223;DHT22;7557;51.698;3.942;2023-05-16T12:51:38;16.50;99.90
9223;DHT22;7557;51.698;3.942;2023-05-16T12:54:10;16.60;99.90
9223;DHT22;7557;51.698;3.942;2023-05-16T12:56:38;16.70;99.90
9223;DHT22;7557;51.698;3.942;2023-05-16T12:59:07;16.60;99.40
9223;DHT22;7557;51.698;3.942;2023-05-16T13:01:35;16.60;99.90
9223;DHT22;7557;51.698;3.942;2023-05-16T13:04:02;16.60;99.50
9223;DHT22;7557;51.698;3.942;2023-05-16T13:06:30;16.60;99.10
9223;DHT22;7557;51.698;3.942;2023-05-16T13:08:57;16.60;98.80
9223;DHT22;7557;51.698;3.942;2023-05-16T13:11:24;16.50;99.20
9223;DHT22;7557;51.698;3.942;2023-05-16T13:13:52;16.50;99.60
9223;DHT22;7557;51.698;3.942;2023-05-16T13:16:20;16.50;99.70
9223;DHT22;7557;51.698;3.942;2023-05-16T13:18:47;16.50;98.20
9223;DHT22;7557;51.698;3.942;2023-05-16T13:21:15;16.50;99.00
9223;DHT22;7557;51.698;3.942;2023-05-16T13:23:43;16.50;99.20
9223;DHT22;7557;51.698;3.942;2023-05-16T13:26:10;16.40;99.40
9223;DHT22;7557;51.698;3.942;2023-05-16T13:28:37;16.40;99.50
9223;DHT22;7557;51.698;3.942;2023-05-16T13:31:04;16.50;97.60
9223;DHT22;7557;51.698;3.942;2023-05-16T13:33:33;16.40;98.30
9223;DHT22;7557;51.698;3.942;2023-05-16T13:36:02;16.40;98.00
9223;DHT22;7557;51.698;3.942;2023-05-16T13:38:29;16.40;97.30
9223;DHT22;7557;51.698;3.942;2023-05-16T13:40:57;16.40;98.40
9223;DHT22;7557;51.698;3.942;2023-05-16T13:43:24;16.40;98.40
9223;DHT22;7557;51.698;3.942;2023-05-16T13:45:51;16.40;97.70
9223;DHT22;7557;51.698;3.942;2023-05-16T13:48:19;16.50;98.40
9223;DHT22;7557;51.698;3.942;2023-05-16T13:50:47;16.60;98.80
9223;DHT22;7557;51.698;3.942;2023-05-16T13:53:14;16.80;96.90
9223;DHT22;7557;51.698;3.942;2023-05-16T13:55:42;16.70;96.00
9223;DHT22;7557;51.698;3.942;2023-05-16T13:58:09;16.60;96.80
9223;DHT22;7557;51.698;3.942;2023-05-16T14:00:37;16.60;96.40
9223;DHT22;7557;51.698;3.942;2023-05-16T14:03:04;16.60;98.10
9223;DHT22;7557;51.698;3.942;2023-05-16T14:05:32;16.60;96.20
9223;DHT22;7557;51.698;3.942;2023-05-16T14:08:02;16.60;97.70
9223;DHT22;7557;51.698;3.942;2023-05-16T14:10:30;16.60;98.20
9223;DHT22;7557;51.698;3.942;2023-05-16T14:12:57;16.60;97.10
9223;DHT22;7557;51.698;3.942;2023-05-16T14:15:25;16.60;97.80
9223;DHT22;7557;51.698;3.942;2023-05-16T14:17:52;16.60;98.70
9223;DHT22;7557;51.698;3.942;2023-05-16T14:20:20;16.50;98.60
9223;DHT22;7557;51.698;3.942;2023-05-16T14:22:48;16.50;98.90
9223;DHT22;7557;51.698;3.942;2023-05-16T14:25:17;16.50;99.10
9223;DHT22;7557;51.698;3.942;2023-05-16T14:27:45;16.50;99.60
9223;DHT22;7557;51.698;3.942;2023-05-16T14:30:13;16.50;99.50
9223;DHT22;7557;51.698;3.942;2023-05-16T14:32:40;16.50;99.10
9223;DHT22;7557;51.698;3.942;2023-05-16T14:35:09;16.60;99.00
9223;DHT22;7557;51.698;3.942;2023-05-16T14:37:36;16.60;99.30
9223;DHT22;7557;51.698;3.942;2023-05-16T14:40:05;16.60;99.10
9223;DHT22;7557;51.698;3.942;2023-05-16T14:42:35;16.60;99.50
9223;DHT22;7557;51.698;3.942;2023-05-16T14:45:03;16.70;99.40
9223;DHT22;7557;51.698;3.942;2023-05-16T14:47:31;16.70;98.90
9223;DHT22;7557;51.698;3.942;2023-05-16T14:49:58;16.60;99.40
9223;DHT22;7557;51.698;3.942;2023-05-16T14:52:26;16.60;99.90
9223;DHT22;7557;51.698;3.942;2023-05-16T14:54:53;16.70;99.90
9223;DHT22;7557;51.698;3.942;2023-05-16T14:57:21;16.60;99.60
9223;DHT22;7557;51.698;3.942;2023-05-16T14:59:50;16.50;99.90
9223;DHT22;7557;51.698;3.942;2023-05-16T15:02:18;16.40;99.90
9223;DHT22;7557;51.698;3.942;2023-05-16T15:04:45;16.50;99.90
9223;DHT22;7557;51.698;3.942;2023-05-16T15:07:13;16.50;99.90
9223;DHT22;7557;51.698;3.942;2023-05-16T15:09:40;16.50;99.90
9223;DHT22;7557;51.698;3.942;2023-05-16T15:12:08;16.50;99.90
9223;DHT22;7557;51.698;3.942;2023-05-16T15:14:36;16.50;99.90
9223;DHT22;7557;51.698;3.942;2023-05-16T15:17:05;16.60;99.90
9223;DHT22;7557;51.698;3.942;2023-05-16T15:19:33;16.50;99.90
9223;DHT22;7557;51.698;3.942;2023-05-16T15:22:00;16.40;99.70
9223;DHT22;7557;51.698;3.942;2023-05-16T15:24:28;16.40;99.90
9223;DHT22;7557;51.698;3.942;2023-05-16T15:26:55;16.40;99.90
9223;DHT22;7557;51.698;3.942;2023-05-16T15:29:24;16.40;99.90
9223;DHT22;7557;51.698;3.942;2023-05-16T15:31:51;16.30;99.90
9223;DHT22;7557;51.698;3.942;2023-05-16T15:34:20;16.00;99.90
9223;DHT22;7557;51.698;3.942;2023-05-16T15:36:48;15.80;99.90
9223;DHT22;7557;51.698;3.942;2023-05-16T15:39:18;15.60;99.90
9223;DHT22;7557;51.698;3.942;2023-05-16T15:41:45;15.70;99.90
9223;DHT22;7557;51.698;3.942;2023-05-16T15:44:13;15.70;99.90
9223;DHT22;7557;51.698;3.942;2023-05-16T15:46:40;15.70;99.90
9223;DHT22;7557;51.698;3.942;2023-05-16T15:49:08;15.70;99.90
9223;DHT22;7557;51.698;3.942;2023-05-16T15:51:38;15.70;99.90
9223;DHT22;7557;51.698;3.942;2023-05-16T15:54:07;15.70;99.90
9223;DHT22;7557;51.698;3.942;2023-05-16T15:56:34;15.80;99.90
9223;DHT22;7557;51.698;3.942;2023-05-16T15:59:02;15.90;99.90
9223;DHT22;7557;51.698;3.942;2023-05-16T16:01:29;16.00;99.90
9223;DHT22;7557;51.698;3.942;2023-05-16T16:03:57;16.10;99.90
9223;DHT22;7557;51.698;3.942;2023-05-16T16:06:24;16.10;99.90
9223;DHT22;7557;51.698;3.942;2023-05-16T16:08:53;16.00;99.90
9223;DHT22;7557;51.698;3.942;2023-05-16T16:11:21;16.00;99.90